Hit Tracker is now ESPN Home Run Tracker! Hit Tracker founder Greg Rybarczyk is now collaborating with the ESPN Stats & Information Group to continue tracking all MLB home runs, and helping baseball fans know "How Far It Really Went!™" Please credit any information on this site to ESPN Stats & Information Group. For more information and analysis on home runs, please contact founder Greg Rybarczyk. E-Mail ESPN Home Run Tracker
Main Page | Ballparks | Park Overlays | Glossary | Highlight Homers | Feedback | Bio | 3 Types of HR's | AAA Home Run Derby Last Updated: September 2, 2015, 11:10 pm PST
Welcome to the ESPN Home Run Tracker! Check out the ESPN MLB Scoreboard throughout the 2015 season! Contact us at grybar@hittrackeronline.com.
Season:
Ballpark detail for Target Field
Ballpark # of Home Runs HR per game Avg.
True
Distance
Avg.
Speed
Off
Bat
Avg.
Std.
Dist.
Target Field 139 2.07 397 103.4 394.3

Scatter Plot of Home Runs Target Field
 Overlay Ballpark:
Without range rings   With range rings

2015 Season Home Runs for Target Field
Click headers to sort
Date ^ Video Path Hitter Hitter
Team
Pitcher Pitcher
Team
INN Ballpark Type/
Luck
True
Dist.
Speed
Off
Bat
Elev.
Angle
Horiz.
Angle
Apex Impact Due To: Std.
Dist.
#
Parks
Wind Temp. Alt.
04/13/15 Video View Morales, Kendrys KC May, Trevor MIN 2 Target Field ND 431 105.9 26.9 81.8 95 1 -1 2 429 30
04/13/15 Video View Plouffe, Trevor MIN Duffy, Danny KC 7 Target Field PL 385 101.1 29.3 114.8 84 4 -1 2 380 30
04/15/15 Video View Arcia, Oswaldo MIN Volquez, Edinson KC 4 Target Field JE 398 101.5 32.8 81.8 126 -7 -1 3 403 26
04/16/15 Video View Cain, Lorenzo KC Milone, Tommy MIN 1 Target Field PL 368 101.6 28.0 123.2 72 -1 -1 1 368 30
04/16/15 Video View Vargas, Kennys MIN Vargas, Jason KC 2 Target Field ND 400 110.8 24.3 121.1 66 -1 0 1 400 30
04/16/15 Video View Suzuki, Kurt MIN Young, Chris KC 8 Target Field PL 379 97.6 31.1 109.0 91 5 0 2 372 17
04/17/15 Video View Moss, Brandon CLE Stauffer, Tim MIN 6 Target Field JE 394 99.7 28.3 101.8 87 1 0 1 391 18
04/17/15 Video View Plouffe, Trevor MIN Shaw, Bryan CLE 11 Target Field PL 407 103.0 30.0 105.0 103 0 -1 2 406 30
04/18/15 Video View Perez, Roberto CLE Hughes, Phil MIN 3 Target Field PL 436 108.4 27.5 97.9 114 -13 0 2 445 30
04/18/15 Video View Suzuki, Kurt MIN Salazar, Danny CLE 7 Target Field PL 389 106.4 22.7 107.2 63 -1 0 1 389 29
04/19/15 Video View Hunter, Torii MIN Swarzak, Anthony CLE 6 Target Field PL 371 100.6 29.0 122.2 75 4 -1 1 367 30
04/19/15 Video View Santana, Carlos CLE Graham, J.R. MIN 9 Target Field PL 406 104.1 26.4 75.2 82 1 -1 2 405 29
04/27/15 Video View Iglesias, Jose DET Milone, Tommy MIN 1 Target Field JE 371 104.4 23.1 112.7 57 0 0 0 370 12
04/27/15 Video View Cespedes, Yoenis DET Milone, Tommy MIN 1 Target Field PL 415 111.9 20.6 101.7 59 0 0 0 415 30
04/29/15 Video View Arcia, Oswaldo MIN Greene, Shane DET 4 Target Field ND 382 103.4 35.9 65.6 130 0 -2 4 380 30
04/29/15 Video View Plouffe, Trevor MIN Greene, Shane DET 5 Target Field JE 390 105.5 22.1 103.1 61 0 0 0 390 16
04/29/15 Video View Cabrera, Miguel DET Stauffer, Tim MIN 6 Target Field ND 446 109.5 27.2 99.0 108 -4 -1 2 448 30
04/29/15 Video View Martinez, J.D. DET Stauffer, Tim MIN 6 Target Field JE 365 101.6 24.7 113.5 63 -1 0 1 365 12
04/29/15 Video View McCann, James DET Thompson, Aaron MIN 6 Target Field ITP/L 409 100.8 29.3 87.9 104 -2 -1 2 409 19
04/29/15 Video View Cabrera, Miguel DET Fien, Casey MIN 9 Target Field PL 430 108.2 21.1 89.5 75 3 0 0 427 26
04/30/15 Video View Dozier, Brian MIN Sale, Chris CHW 3 Target Field JE 384 102.2 24.9 105.9 71 -1 0 1 385 23
05/02/15 Video View Plouffe, Trevor MIN Noesi, Hector CHW 2 Target Field PL 403 101.1 33.6 101.2 122 4 2 3 395 26
05/02/15 Video View Hunter, Torii MIN Noesi, Hector CHW 3 Target Field PL 374 101.4 27.2 116.4 72 0 1 1 373 27
05/03/15 Video View Plouffe, Trevor MIN Danks, John CHW 3 Target Field PL 407 108.8 21.6 102.6 61 0 0 0 406 28
05/03/15 Video View Vargas, Kennys MIN Putnam, Zach CHW 6 Target Field PL 426 108.8 20.7 88.0 66 0 0 0 427 25
05/04/15 Video View Vogt, Stephen OAK Hughes, Phil MIN 1 Target Field PL 368 98.2 33.3 71.6 111 -9 -1 2 374 25
05/04/15 Video View Canha, Mark OAK Hughes, Phil MIN 6 Target Field PL 391 102.6 32.6 111.0 113 -4 -1 3 393 30
05/04/15 Video View Hunter, Torii MIN Alvarez, R.J. OAK 6 Target Field PL 386 106.5 26.4 122.8 72 -2 0 2 387 30
05/06/15 Video View Rosario, Eddie MIN Kazmir, Scott OAK 3 Target Field PL 395 101.7 27.7 105.4 86 -2 0 2 395 30
05/06/15 Video View Escobar, Eduardo MIN Kazmir, Scott OAK 6 Target Field PL 418 107.7 22.8 100.1 72 0 0 0 417 30
05/06/15 Video View Vargas, Kennys MIN Alvarez, R.J. OAK 8 Target Field PL 415 103.6 31.1 78.2 114 0 0 3 413 29
05/07/15 Video View Davis, Ike OAK Tonkin, Michael MIN 6 Target Field JE 416 102.1 30.3 84.6 111 0 0 0 416 0
05/15/15 Video View DeJesus, David TB Hughes, Phil MIN 2 Target Field JE 368 97.8 29.5 67.4 82 0 0 1 367 20
05/15/15 Video View Dozier, Brian MIN Odorizzi, Jake TB 3 Target Field JE 390 100.7 26.9 104.1 81 0 0 1 389 25
05/16/15 Video View Beckham, Tim TB May, Trevor MIN 7 Target Field PL 408 105.8 23.8 102.2 73 -1 0 0 408 30
05/16/15 Video View Dozier, Brian MIN Frieri, Ernesto TB 8 Target Field PL 360 99.6 34.7 114.9 116 -15 1 3 370 30
05/16/15 Video View Forsythe, Logan TB Perkins, Glen MIN 9 Target Field JE 375 102.4 24.5 109.7 65 -1 0 0 375 18
05/25/15 Video View Plouffe, Trevor MIN Kelly, Joe BOS 2 Target Field JE 373 105.9 23.0 115.0 57 0 0 1 373 18
05/27/15 Video View Pedroia, Dustin BOS Hughes, Phil MIN 3 Target Field PL 401 103.7 24.8 102.6 74 0 0 1 400 28
05/27/15 Video View Hicks, Aaron MIN Porcello, Rick BOS 4 Target Field ND 386 99.9 32.1 67.4 99 3 1 2 379 29
05/27/15 Video View Pedroia, Dustin BOS Hughes, Phil MIN 5 Target Field PL 406 102.9 27.9 105.1 87 2 1 1 403 30
05/27/15 Video View Rosario, Eddie MIN Porcello, Rick BOS 6 Target Field ND 426 105.0 32.6 73.8 118 12 2 3 410 30
05/29/15 Video View Donaldson, Josh TOR May, Trevor MIN 5 Target Field PL 427 104.4 27.9 89.3 106 -2 -2 2 429 26
05/29/15 Video View Colabello, Chris TOR Perkins, Glen MIN 9 Target Field PL 405 101.7 27.6 98.4 93 -1 -2 1 406 25
05/30/15 Video View Herrmann, Chris MIN Sanchez, Aaron TOR 3 Target Field JE/L 360 104.1 24.1 57.7 59 -2 0 1 362 25
05/30/15 Video View Pillar, Kevin TOR Gibson, Kyle MIN 4 Target Field PL 379 99.3 30.8 110.4 94 0 -1 2 379 29
05/31/15 Video View Plouffe, Trevor MIN Hutchison, Drew TOR 6 Target Field ND 416 108.8 24.7 108.6 76 0 -1 1 416 30
05/31/15 Video View Donaldson, Josh TOR Stauffer, Tim MIN 7 Target Field PL 372 96.9 33.0 72.8 104 2 -2 2 370 17
06/05/15 Video View Segura, Jean MIL Gibson, Kyle MIN 1 Target Field PL 387 106.8 22.7 109.1 62 -1 0 1 387 30
06/05/15 Video View Lucroy, Jonathan MIL Gibson, Kyle MIN 2 Target Field JE 413 103.7 24.2 94.7 80 0 1 1 413 20
06/05/15 Video View Lind, Adam MIL Gibson, Kyle MIN 3 Target Field ND 420 110.8 25.9 66.2 83 -5 0 1 422 30
06/05/15 Video View Mauer, Joe MIN Lohse, Kyle MIL 5 Target Field JE 380 102.3 25.4 70.4 70 -2 0 1 381 24
06/06/15 Video View Braun, Ryan MIL Graham, J.R. MIN 1 Target Field PL 427 108.0 21.3 87.4 70 1 0 0 425 25
06/06/15 Video View Dozier, Brian MIN Broxton, Jonathan MIL 8 Target Field JE 391 104.7 23.2 104.7 65 0 0 0 390 22
06/08/15 Video View Morales, Kendrys KC Hughes, Phil MIN 2 Target Field ND 438 109.1 23.7 82.1 80 0 1 1 437 30
06/08/15 Video View Rosario, Eddie MIN Madson, Ryan KC 7 Target Field JE 385 100.0 26.6 104.8 76 1 1 1 383 14
06/09/15 Video View Perez, Salvador KC Boyer, Blaine MIN 9 Target Field ND 420 109.8 25.3 112.5 75 2 1 1 415 30
06/10/15 Video View Gordon, Alex KC Gibson, Kyle MIN 1 Target Field JE 374 101.7 26.6 64.0 70 0 0 1 373 27
06/10/15 Video View Plouffe, Trevor MIN Hochevar, Luke KC 8 Target Field JE 386 99.0 28.4 104.1 87 0 0 1 384 18
06/18/15 Video View Heyward, Jason STL Pelfrey, Mike MIN 7 Target Field PL 411 102.7 28.4 78.4 96 0 1 2 409 29
06/18/15 Video View Mauer, Joe MIN Siegrist, Kevin STL 8 Target Field PL 374 98.9 31.3 114.7 91 0 1 2 372 28
06/18/15 Video View Vargas, Kennys MIN Villanueva, Carlos STL 9 Target Field PL 377 103.3 27.4 58.4 72 0 0 1 376 30
06/19/15 Video View Rizzo, Anthony CHC Hughes, Phil MIN 4 Target Field JE 405 101.8 26.7 80.7 85 0 1 1 404 25
06/19/15 Video View Rizzo, Anthony CHC Graham, J.R. MIN 9 Target Field PL 385 105.8 25.7 60.2 68 0 0 1 384 29
06/20/15 Video View Suzuki, Kurt MIN Lester, Jon CHC 2 Target Field PL 396 100.9 32.4 109.9 106 6 2 3 386 30
06/21/15 Video View Rizzo, Anthony CHC Gibson, Kyle MIN 5 Target Field JE/L 421 105.0 23.9 85.9 72 0 0 0 420 25
06/21/15 Video View Fowler, Dexter CHC Tonkin, Michael MIN 8 Target Field PL 373 98.7 29.7 62.8 78 4 2 2 365 25
06/22/15 Video View Mauer, Joe MIN Danks, John CHW 4 Target Field JE 371 96.8 30.7 110.0 88 2 1 2 366 15
06/22/15 Video View Nunez, Eduardo MIN Danks, John CHW 4 Target Field PL 372 99.2 35.0 115.5 112 1 1 3 367 28
06/22/15 Video View Vargas, Kennys MIN Danks, John CHW 6 Target Field ND 436 112.1 24.5 107.7 79 0 0 1 434 30
06/22/15 Video View Dozier, Brian MIN Guerra, Junior CHW 8 Target Field PL 357 100.7 38.7 115.9 137 0 0 5 352 26
06/23/15 Video View Rosario, Eddie MIN Samardzija, Jeff CHW 1 Target Field JE 393 99.0 29.5 77.5 92 2 1 2 388 20
06/24/15 Video View LaRoche, Adam CHW Hughes, Phil MIN 2 Target Field ND 398 104.0 26.8 69.2 77 1 1 1 395 29
07/06/15 Video View Machado, Manny BAL Hughes, Phil MIN 1 Target Field JE 414 101.9 29.8 83.5 107 0 0 2 412 23
07/06/15 Video View Hunter, Torii MIN Chen, Wei-Yin BAL 1 Target Field PL 389 101.7 35.1 106.7 129 0 0 4 385 30
07/06/15 Video View Hicks, Aaron MIN Chen, Wei-Yin BAL 2 Target Field PL 422 104.8 27.8 102.2 98 2 0 2 418 30
07/06/15 Video View Jones, Adam BAL Hughes, Phil MIN 6 Target Field ND 391 104.6 34.6 120.9 116 1 0 3 388 30
07/06/15 Video View Dozier, Brian MIN Hunter, Tommy BAL 10 Target Field PL 373 102.2 27.1 119.7 71 1 0 1 372 30
07/07/15 Video View Sano, Miguel MIN Gausman, Kevin BAL 1 Target Field PL 383 99.7 33.2 104.6 116 -5 0 3 386 30
07/07/15 Video View Hardy, J.J. BAL Gibson, Kyle MIN 5 Target Field PL 396 107.2 23.4 108.6 65 -1 0 1 396 30
07/08/15 Video View Dozier, Brian MIN Norris, Bud BAL 6 Target Field PL 381 102.6 26.9 114.9 73 0 1 1 380 30
07/08/15 Video View Mauer, Joe MIN Norris, Bud BAL 6 Target Field JE 399 105.3 23.2 102.9 65 0 0 0 399 27
07/08/15 Video View Machado, Manny BAL Fien, Casey MIN 8 Target Field JE 364 98.7 27.5 64.6 69 2 0 1 361 13
07/08/15 Video View Davis, Chris BAL Fien, Casey MIN 8 Target Field JE 390 99.9 27.2 102.4 82 0 0 1 389 18
07/09/15 Video View Kinsler, Ian DET Pelfrey, Mike MIN 1 Target Field JE 394 102.6 25.4 104.9 73 0 0 1 392 26
07/10/15 Video View Martinez, Victor DET Santana, Ervin MIN 3 Target Field JE 376 98.0 28.7 71.0 78 4 0 1 371 16
07/10/15 Video View Cespedes, Yoenis DET Santana, Ervin MIN 4 Target Field JE 412 105.6 22.3 96.0 68 0 0 0 411 19
07/10/15 Video View Martinez, J.D. DET Santana, Ervin MIN 4 Target Field JE 398 100.8 27.0 78.7 83 0 1 1 395 24
07/10/15 Video View Dozier, Brian MIN Soria, Joakim DET 9 Target Field PL 380 99.7 33.9 112.2 110 -1 3 3 375 29
07/11/15 Video View Martinez, Victor DET Hughes, Phil MIN 4 Target Field PL 359 96.7 33.3 60.4 94 -1 2 2 355 26
07/11/15 Video View Hunter, Torii MIN Farmer, Buck DET 6 Target Field ND 404 107.2 34.3 115.8 128 -6 4 4 402 30
07/12/15 Video View Sano, Miguel MIN Greene, Shane DET 1 Target Field JE 382 103.9 23.8 108.4 63 0 1 1 381 21
07/12/15 Video View Plouffe, Trevor MIN Greene, Shane DET 5 Target Field JE 400 109.6 19.9 100.6 55 2 0 1 398 8
07/24/15 Video View Sano, Miguel MIN Pineda, Michael NYY 1 Target Field JE/L 419 100.6 31.0 92.1 106 8 3 3 406 12
07/24/15 Video View Hunter, Torii MIN Pinder, Branden NYY 7 Target Field JE 357 104.3 23.7 126.5 54 0 1 1 355 21
07/24/15 Video View Plouffe, Trevor MIN Capuano, Chris NYY 8 Target Field PL 381 101.2 33.9 121.1 104 2 2 3 374 30
07/24/15 Video View Dozier, Brian MIN Capuano, Chris NYY 8 Target Field PL 387 102.3 30.7 120.7 88 2 1 2 381 30
07/25/15 Video View Hicks, Aaron MIN Sabathia, CC NYY 1 Target Field PL 413 103.9 25.9 100.9 82 1 1 1 410 30
07/25/15 Video View Hunter, Torii MIN Sabathia, CC NYY 3 Target Field JE/L 349 93.6 34.6 62.5 94 3 2 2 341 5
07/25/15 Video View Rodriguez, Alex NYY Milone, Tommy MIN 4 Target Field ND 450 110.3 31.0 104.3 126 3 4 4 441 30
07/25/15 Video View Rodriguez, Alex NYY Milone, Tommy MIN 7 Target Field PL 420 104.7 25.6 98.6 84 0 1 1 418 29
07/25/15 Video View Rodriguez, Alex NYY Perkins, Glen MIN 9 Target Field PL 438 106.5 24.9 93.2 82 3 1 1 434 28
07/25/15 Video View Murphy, John Ryan NYY Perkins, Glen MIN 9 Target Field JE 408 100.2 31.1 83.1 107 3 2 2 401 15
07/26/15 Video View Headley, Chase NYY Gibson, Kyle MIN 5 Target Field ND 405 107.1 28.5 62.4 89 -5 4 2 406 30
07/26/15 Video View Drew, Stephen NYY O'Rourke, Ryan MIN 6 Target Field PL 386 100.1 30.0 70.9 92 -3 3 2 384 29
07/28/15 Video View Kang, Jung Ho PIT Perkins, Glen MIN 9 Target Field ND 439 111.5 22.7 100.3 77 -1 1 1 438 30
07/29/15 Video View Kang, Jung Ho PIT Santana, Ervin MIN 2 Target Field PL 406 107.4 24.3 107.6 73 -2 0 1 406 30
07/29/15 Video View McCutchen, Andrew PIT Santana, Ervin MIN 5 Target Field PL 396 107.0 24.1 110.6 69 -2 1 1 396 30
07/30/15 Video View Smith, Seth SEA Hughes, Phil MIN 1 Target Field JE 376 103.2 26.4 58.7 66 2 1 1 372 28
07/30/15 Video View Dozier, Brian MIN Happ, J.A. SEA 1 Target Field PL 388 105.1 25.5 116.2 68 1 1 1 384 30
07/30/15 Video View Rosario, Eddie MIN Happ, J.A. SEA 1 Target Field PL 376 98.3 32.8 58.8 89 10 2 2 362 30
07/30/15 Video View Hicks, Aaron MIN Happ, J.A. SEA 2 Target Field PL 418 102.5 30.7 102.5 105 7 2 3 406 30
07/30/15 Video View Jackson, Austin SEA Hughes, Phil MIN 4 Target Field JE 404 100.9 27.8 100.2 88 2 1 2 400 22
07/31/15 Video View Sano, Miguel MIN Walker, Taijuan SEA 4 Target Field JE 371 102.5 24.8 114.5 62 1 1 1 369 16
07/31/15 Video View Montero, Jesus SEA Milone, Tommy MIN 6 Target Field JE 399 100.3 27.4 100.2 84 3 1 1 395 12
07/31/15 Video View Cruz, Nelson SEA Graham, J.R. MIN 9 Target Field JE/L 357 95.3 29.9 69.0 81 -1 1 1 356 10
08/01/15 Video View Cruz, Nelson SEA Gibson, Kyle MIN 6 Target Field ND 446 110.7 23.7 98.9 82 0 1 1 444 30
08/02/15 Video View Cruz, Nelson SEA Perkins, Glen MIN 9 Target Field PL 443 107.0 25.7 92.8 92 1 2 1 440 29
08/02/15 Video View Dozier, Brian MIN Iwakuma, Hisashi SEA 9 Target Field ND 424 104.1 31.1 108.2 102 14 3 3 406 30
08/11/15 Video View Andrus, Elvis TEX Gibson, Kyle MIN 2 Target Field JE 358 104.4 22.9 119.2 53 0 0 0 358 10
08/12/15 Video View Hicks, Aaron MIN Martinez, Nick TEX 1 Target Field PL 419 103.1 28.0 82.2 96 0 1 1 416 28
08/12/15 Video View Sano, Miguel MIN Martinez, Nick TEX 3 Target Field PL 429 105.8 28.1 101.1 100 0 2 2 426 30
08/12/15 Video View Sano, Miguel MIN Martinez, Nick TEX 4 Target Field ND 402 106.3 34.8 115.1 129 -2 3 4 397 30
08/13/15 Video View Plouffe, Trevor MIN Gonzalez, Chi Chi TEX 2 Target Field PL 391 101.0 30.8 109.6 99 -3 2 2 389 30
08/13/15 Video View Moreland, Mitch TEX Santana, Ervin MIN 4 Target Field PL 405 102.2 29.7 73.5 95 2 2 2 399 30
08/14/15 Video View Urshela, Giovanny CLE May, Trevor MIN 2 Target Field PL 425 108.5 22.5 98.6 71 0 0 1 424 30
08/14/15 Video View Mauer, Joe MIN Kluber, Corey CLE 4 Target Field ND 423 104.1 32.0 74.5 113 9 4 3 408 30
08/15/15 Video View Rosario, Eddie MIN Tomlin, Josh CLE 5 Target Field PL 383 99.7 35.1 68.4 116 5 4 3 372 27
08/15/15 Video View Herrmann, Chris MIN Tomlin, Josh CLE 5 Target Field PL 354 97.7 39.1 66.3 131 4 5 5 341 8
08/15/15 Video View Dozier, Brian MIN Shaw, Bryan CLE 8 Target Field PL 384 102.8 26.8 114.3 73 0 1 1 382 30
08/16/15 Video View Plouffe, Trevor MIN McAllister, Zach CLE 8 Target Field PL 395 98.6 33.4 103.7 109 11 2 3 381 15
08/28/15 Video View Nunez, Eduardo MIN Kazmir, Scott HOU 3 Target Field PL 360 98.5 36.8 114.3 122 0 0 4 357 22
08/30/15 Video View Nunez, Eduardo MIN McCullers, Lance HOU 6 Target Field PL 413 104.4 27.9 105.8 92 1 1 2 409 30
08/30/15 Video View Sano, Miguel MIN Perez, Oliver HOU 7 Target Field JE 369 107.5 22.7 122.7 54 0 1 1 368 26
08/30/15 Video View Carter, Chris HOU O'Rourke, Ryan MIN 9 Target Field PL 457 111.0 23.1 92.3 85 0 1 1 455 30
08/30/15 Video View Altuve, Jose HOU May, Trevor MIN 9 Target Field PL 383 98.2 33.6 106.1 110 2 3 3 376 21
09/01/15 Video View Garcia, Avisail CHW Fien, Casey MIN 6 Target Field PL 426 105.2 29.4 102.7 105 1 2 2 421 30
09/01/15 Video View Sano, Miguel MIN Jones, Nate CHW 7 Target Field ND 398 104.4 30.2 118.9 90 1 2 2 393 30
09/02/15 Video View Sano, Miguel MIN Rodon, Carlos CHW 2 Target Field PL 446 106.8 28.1 92.6 110 1 1 2 442 30


About HitTracker | Contact Us
© 2006-2015 HitTrackerOnline